createdAt,value
2022-08-02T00:02:20.888Z,3.97
2022-08-02T00:04:47.921Z,5.35
2022-08-02T00:07:15.809Z,6.70
2022-08-02T00:09:43.105Z,8.77
2022-08-02T00:12:10.692Z,16.13
2022-08-02T00:14:37.974Z,5.65
2022-08-02T00:17:05.495Z,5.45
2022-08-02T00:19:32.550Z,4.80
2022-08-02T00:21:59.174Z,5.00
2022-08-02T00:24:30.834Z,8.75
2022-08-02T00:26:57.992Z,5.13
2022-08-02T00:29:25.177Z,5.57
2022-08-02T00:31:51.723Z,5.22
2022-08-02T00:34:28.935Z,3.78
2022-08-02T00:36:58.166Z,6.05
2022-08-02T00:39:34.891Z,3.20
2022-08-02T00:42:02.677Z,4.65
2022-08-02T00:44:29.255Z,5.47
2022-08-02T00:46:56.122Z,5.22
2022-08-02T00:49:22.856Z,9.70
2022-08-02T00:51:49.638Z,5.80
2022-08-02T00:54:16.208Z,3.50
2022-08-02T00:56:49.575Z,3.90
2022-08-02T00:59:16.806Z,7.95
2022-08-02T01:01:56.675Z,3.17
2022-08-02T01:04:30.400Z,8.18
2022-08-02T01:07:00.301Z,3.75
2022-08-02T01:09:27.273Z,6.07
2022-08-02T01:11:53.852Z,4.43
2022-08-02T01:14:22.911Z,5.82
2022-08-02T01:17:36.912Z,9.05
2022-08-02T01:20:12.453Z,7.95
2022-08-02T01:23:10.850Z,5.32
2022-08-02T01:26:02.384Z,8.25
2022-08-02T01:28:38.003Z,14.25
2022-08-02T01:31:19.636Z,5.88
2022-08-02T01:34:17.560Z,5.10
2022-08-02T01:36:56.005Z,4.70
2022-08-02T01:39:27.339Z,11.75
2022-08-02T01:42:01.413Z,6.93
2022-08-02T01:44:31.924Z,7.03
2022-08-02T01:47:02.265Z,5.93
2022-08-02T01:49:30.994Z,11.25
2022-08-02T01:52:18.919Z,6.25
2022-08-02T01:54:48.681Z,7.85
2022-08-02T01:57:17.419Z,6.30
2022-08-02T01:59:46.843Z,10.23
2022-08-02T02:02:15.103Z,11.70
2022-08-02T02:04:43.861Z,11.45
2022-08-02T02:07:12.776Z,10.00
2022-08-02T02:09:50.817Z,10.73
2022-08-02T02:12:19.963Z,10.07
2022-08-02T02:14:51.927Z,13.80
2022-08-02T02:18:10.658Z,10.10
2022-08-02T02:20:09.955Z,18.73
2022-08-02T02:22:36.669Z,11.88
2022-08-02T02:25:06.334Z,7.38
2022-08-02T02:27:34.977Z,10.68
2022-08-02T02:30:06.000Z,16.33
2022-08-02T02:32:34.727Z,10.40
2022-08-02T02:35:04.067Z,7.32
2022-08-02T02:37:32.173Z,6.28
2022-08-02T02:39:59.159Z,13.40
2022-08-02T02:42:30.159Z,10.52
2022-08-02T02:44:57.523Z,7.30
2022-08-02T02:47:40.462Z,15.02
2022-08-02T02:50:08.560Z,8.27
2022-08-02T02:52:36.885Z,9.73
2022-08-02T02:55:04.099Z,10.95
2022-08-02T02:57:31.398Z,10.77
2022-08-02T02:59:58.738Z,8.98
2022-08-02T03:02:25.864Z,9.05
2022-08-02T03:04:56.660Z,10.02
2022-08-02T03:07:24.777Z,7.55
2022-08-02T03:09:53.965Z,11.95
2022-08-02T03:12:31.334Z,9.25
2022-08-02T03:15:00.725Z,7.43
2022-08-02T03:17:37.812Z,5.63
2022-08-02T03:20:11.434Z,6.50
2022-08-02T03:22:38.087Z,5.53
2022-08-02T03:25:05.201Z,7.10
2022-08-02T03:27:31.735Z,7.57
2022-08-02T03:29:58.259Z,4.68
2022-08-02T03:32:25.026Z,7.03
2022-08-02T03:34:52.010Z,10.82
2022-08-02T03:37:19.186Z,5.72
2022-08-02T03:39:51.088Z,8.90
2022-08-02T03:42:21.294Z,8.85
2022-08-02T03:44:49.843Z,8.18
2022-08-02T03:47:18.690Z,7.50
2022-08-02T03:49:46.242Z,7.25
2022-08-02T03:52:14.553Z,11.40
2022-08-02T03:54:45.874Z,11.07
2022-08-02T03:59:43.019Z,14.73
2022-08-02T04:02:10.390Z,13.27
2022-08-02T04:04:37.309Z,12.73
2022-08-02T04:07:07.512Z,16.15
2022-08-02T04:09:34.374Z,23.40
2022-08-02T04:12:00.886Z,15.23
2022-08-02T04:14:27.795Z,14.60
2022-08-02T04:17:07.983Z,18.75
2022-08-02T04:19:39.507Z,17.98
2022-08-02T04:24:41.745Z,16.73
2022-08-02T04:27:51.254Z,14.00
2022-08-02T04:29:58.506Z,17.20
2022-08-02T04:32:25.151Z,24.05
2022-08-02T04:35:18.093Z,16.67
2022-08-02T04:37:39.127Z,13.60
2022-08-02T04:40:25.663Z,23.95
2022-08-02T04:42:53.911Z,13.50
2022-08-02T04:45:21.823Z,20.75
2022-08-02T04:48:01.977Z,20.27
2022-08-02T04:50:30.670Z,15.43
2022-08-02T04:52:57.221Z,15.40
2022-08-02T04:55:28.338Z,24.58
2022-08-02T04:57:55.248Z,14.25
2022-08-02T05:00:22.247Z,16.00
2022-08-02T05:02:49.358Z,12.95
2022-08-02T05:05:16.682Z,27.20
2022-08-02T05:07:43.226Z,18.08
2022-08-02T05:10:10.396Z,15.70
2022-08-02T05:12:39.874Z,14.35
2022-08-02T05:15:07.271Z,10.20
2022-08-02T05:17:39.231Z,10.60
2022-08-02T05:20:15.124Z,14.38
2022-08-02T05:22:41.996Z,10.50
2022-08-02T05:25:09.249Z,21.15
2022-08-02T05:27:35.796Z,12.52
2022-08-02T05:30:02.994Z,9.07
2022-08-02T05:32:29.588Z,15.50
2022-08-02T05:34:56.741Z,14.35
2022-08-02T05:37:23.341Z,11.07
2022-08-02T05:39:55.414Z,14.73
2022-08-02T05:42:22.712Z,19.63
2022-08-02T05:44:49.273Z,18.80
2022-08-02T05:47:15.818Z,15.77
2022-08-02T05:49:42.988Z,20.60
2022-08-02T05:52:16.287Z,24.00
2022-08-02T05:54:55.529Z,20.38
2022-08-02T05:57:34.424Z,15.82
2022-08-02T06:00:14.554Z,14.50
2022-08-02T06:02:43.880Z,18.27
2022-08-02T06:05:19.963Z,18.42
2022-08-02T06:07:48.492Z,18.17
2022-08-02T06:10:16.821Z,12.77
2022-08-02T06:12:50.232Z,26.65
2022-08-02T06:15:18.770Z,16.02
2022-08-02T06:17:46.445Z,12.45
2022-08-02T06:20:15.497Z,12.07
2022-08-02T06:22:44.122Z,16.02
2022-08-02T06:25:50.888Z,18.23
2022-08-02T06:28:00.932Z,11.23
2022-08-02T06:30:28.441Z,14.30
2022-08-02T06:32:55.570Z,11.75
2022-08-02T06:35:23.824Z,14.50
2022-08-02T06:38:00.341Z,10.35
2022-08-02T06:40:33.356Z,12.90
2022-08-02T06:43:23.342Z,20.67
2022-08-02T06:45:49.879Z,27.90
2022-08-02T06:48:16.587Z,17.77
2022-08-02T06:50:44.323Z,15.85
2022-08-02T06:53:11.769Z,14.25
2022-08-02T06:55:43.993Z,12.70
2022-08-02T06:58:11.941Z,14.05
2022-08-02T07:00:38.717Z,10.57
2022-08-02T07:03:05.526Z,9.90
2022-08-02T07:05:32.142Z,12.35
2022-08-02T07:07:58.759Z,15.52
2022-08-02T07:10:25.399Z,10.93
2022-08-02T07:12:51.970Z,9.63
2022-08-02T07:15:18.504Z,7.78
2022-08-02T07:17:45.139Z,8.95
2022-08-02T07:20:13.411Z,13.57
2022-08-02T07:22:39.939Z,4.63
2022-08-02T07:25:07.397Z,6.00
2022-08-02T07:27:34.108Z,9.45
2022-08-02T07:30:00.837Z,8.43
2022-08-02T07:32:30.423Z,7.90
2022-08-02T07:34:57.395Z,8.05
2022-08-02T07:37:53.239Z,6.78
2022-08-02T07:40:19.529Z,7.78
2022-08-02T07:42:48.447Z,9.23
2022-08-02T07:45:15.137Z,11.52
2022-08-02T07:47:44.015Z,4.18
2022-08-02T07:50:12.792Z,6.47
2022-08-02T07:52:41.159Z,7.47
2022-08-02T07:55:08.913Z,3.92
2022-08-02T07:57:36.866Z,4.13
2022-08-02T08:00:06.358Z,3.33
2022-08-02T08:02:32.925Z,8.57
2022-08-02T08:04:59.474Z,7.38
2022-08-02T08:07:26.270Z,7.13
2022-08-02T08:09:56.655Z,6.97
2022-08-02T08:12:23.449Z,5.63
2022-08-02T08:14:50.018Z,3.67
2022-08-02T08:17:17.260Z,4.35
2022-08-02T08:19:50.037Z,5.57
2022-08-02T08:22:22.072Z,4.15
2022-08-02T08:24:48.880Z,3.85
2022-08-02T08:27:16.880Z,3.20
2022-08-02T08:29:44.122Z,3.88
2022-08-02T08:32:16.287Z,13.85
2022-08-02T08:34:48.058Z,4.47
2022-08-02T08:37:17.662Z,4.05
2022-08-02T08:39:57.626Z,6.28
2022-08-02T08:42:30.895Z,5.65
2022-08-02T08:44:58.893Z,4.43
2022-08-02T08:47:40.507Z,2.65
2022-08-02T08:52:57.529Z,3.75
2022-08-02T08:55:26.110Z,7.70
2022-08-02T08:57:54.840Z,5.88
2022-08-02T09:00:21.787Z,7.93
2022-08-02T09:02:49.072Z,5.32
2022-08-02T09:05:17.842Z,4.75
2022-08-02T09:07:51.986Z,3.28
2022-08-02T09:10:40.338Z,4.70
2022-08-02T09:13:39.097Z,4.40
2022-08-02T09:16:00.867Z,4.63
2022-08-02T09:18:41.554Z,4.65
2022-08-02T09:21:09.721Z,3.72
2022-08-02T09:23:38.160Z,3.47
2022-08-02T09:26:07.759Z,5.40
2022-08-02T09:28:37.619Z,7.07
2022-08-02T09:31:14.979Z,3.40
2022-08-02T09:33:43.583Z,5.00
2022-08-02T09:36:15.362Z,5.68
2022-08-02T09:38:58.043Z,5.25
2022-08-02T09:41:27.378Z,5.47
2022-08-02T09:44:04.400Z,11.10
2022-08-02T09:46:37.572Z,1.83
2022-08-02T09:49:13.300Z,4.78
2022-08-02T09:51:52.530Z,3.83
2022-08-02T09:54:25.238Z,2.53
2022-08-02T09:56:54.321Z,2.80
2022-08-02T09:59:24.923Z,3.75
2022-08-02T10:01:59.272Z,4.95
2022-08-02T10:04:31.750Z,2.15
2022-08-02T10:07:04.129Z,5.88
2022-08-02T10:09:31.401Z,6.63
2022-08-02T10:11:59.524Z,3.53
2022-08-02T10:14:26.709Z,3.78
2022-08-02T10:16:54.701Z,5.30
2022-08-02T10:19:59.663Z,3.63
2022-08-02T10:22:13.193Z,1.20
2022-08-02T10:24:47.442Z,2.70
2022-08-02T10:27:20.220Z,4.20
2022-08-02T10:29:53.759Z,3.22
2022-08-02T10:32:42.198Z,2.97
2022-08-02T10:35:19.654Z,1.65
2022-08-02T10:37:56.279Z,3.88
2022-08-02T10:40:28.849Z,2.88
2022-08-02T10:43:00.953Z,1.70
2022-08-02T10:45:28.020Z,4.57
2022-08-02T10:48:06.021Z,3.97
2022-08-02T10:50:52.823Z,5.05
2022-08-02T10:53:26.295Z,2.15
2022-08-02T10:55:55.221Z,3.20
2022-08-02T10:58:26.055Z,3.33
2022-08-02T11:03:29.163Z,4.97
2022-08-02T11:06:09.571Z,2.53
2022-08-02T11:09:33.436Z,4.20
2022-08-02T11:12:12.287Z,2.72
2022-08-02T11:14:44.880Z,5.95
2022-08-02T11:17:17.414Z,3.80
2022-08-02T11:20:08.911Z,3.50
2022-08-02T11:25:24.212Z,6.60
2022-08-02T11:27:59.624Z,1.80
2022-08-02T11:30:27.400Z,6.22
2022-08-02T11:32:58.651Z,3.40
2022-08-02T11:35:39.639Z,1.58
2022-08-02T11:38:16.903Z,2.65
2022-08-02T11:40:45.014Z,6.20
2022-08-02T11:43:23.167Z,2.72
2022-08-02T11:45:54.307Z,2.33
2022-08-02T11:48:49.980Z,2.85
2022-08-02T11:51:18.542Z,6.20
2022-08-02T11:53:53.452Z,6.40
2022-08-02T11:56:28.484Z,7.20
2022-08-02T11:59:21.296Z,4.97
2022-08-02T12:01:48.366Z,7.20
2022-08-02T12:04:18.598Z,4.57
2022-08-02T12:06:55.993Z,4.75
2022-08-02T12:09:22.985Z,4.13
2022-08-02T12:11:51.063Z,3.30
2022-08-02T12:14:18.458Z,5.45
2022-08-02T12:17:03.804Z,3.63
2022-08-02T12:19:30.424Z,9.00
2022-08-02T12:22:13.346Z,2.65
2022-08-02T12:24:43.127Z,5.03
2022-08-02T12:27:10.368Z,7.57
2022-08-02T12:29:58.573Z,6.85
2022-08-02T12:32:26.422Z,6.78
2022-08-02T12:35:25.922Z,4.13
2022-08-02T12:37:53.813Z,2.30
2022-08-02T12:40:33.322Z,4.65
2022-08-02T12:43:02.496Z,10.27
2022-08-02T12:45:48.661Z,3.95
2022-08-02T12:48:17.824Z,7.18
2022-08-02T12:50:44.754Z,2.78
2022-08-02T12:53:14.113Z,3.85
2022-08-02T12:55:59.957Z,3.65
2022-08-02T12:58:31.337Z,6.65
2022-08-02T13:01:00.314Z,2.00
2022-08-02T13:04:10.420Z,3.90
2022-08-02T13:06:40.956Z,3.35
2022-08-02T13:09:01.936Z,2.20
2022-08-02T13:11:29.014Z,4.60
2022-08-02T13:13:55.823Z,10.90
2022-08-02T13:16:31.172Z,4.10
2022-08-02T13:18:58.623Z,1.77
2022-08-02T13:21:40.799Z,3.40
2022-08-02T13:24:32.983Z,2.22
2022-08-02T13:26:55.311Z,5.35
2022-08-02T13:29:21.974Z,4.97
2022-08-02T13:31:48.524Z,7.00
2022-08-02T13:34:16.672Z,5.30
2022-08-02T13:36:43.526Z,7.25
2022-08-02T13:39:11.938Z,6.28
2022-08-02T13:41:38.595Z,5.53
2022-08-02T13:44:10.391Z,4.35
2022-08-02T13:46:45.096Z,6.20
2022-08-02T13:49:18.324Z,1.63
2022-08-02T13:51:47.579Z,4.68
2022-08-02T13:54:14.986Z,2.40
2022-08-02T13:56:41.504Z,3.88
2022-08-02T13:59:54.657Z,2.88
2022-08-02T14:01:56.773Z,4.47
2022-08-02T14:04:24.168Z,3.10
2022-08-02T14:06:50.960Z,7.97
2022-08-02T14:09:17.636Z,2.53
2022-08-02T14:11:45.501Z,4.55
2022-08-02T14:14:15.972Z,4.03
2022-08-02T14:19:16.802Z,5.32
2022-08-02T14:21:46.301Z,7.75
2022-08-02T14:24:18.474Z,2.67
2022-08-02T14:26:46.002Z,2.40
2022-08-02T14:29:13.492Z,4.57
2022-08-02T14:31:44.458Z,4.78
2022-08-02T14:34:12.540Z,3.80
2022-08-02T14:36:39.429Z,4.45
2022-08-02T14:39:06.357Z,2.20
2022-08-02T14:41:33.962Z,13.82
2022-08-02T14:44:20.385Z,3.13
2022-08-02T14:46:47.013Z,4.22
2022-08-02T14:49:14.393Z,3.05
2022-08-02T14:51:42.608Z,7.68
2022-08-02T14:54:11.716Z,3.65
2022-08-02T14:56:38.671Z,7.05
2022-08-02T14:59:06.067Z,2.80
2022-08-02T15:01:32.891Z,6.38
2022-08-02T15:03:59.417Z,6.13
2022-08-02T15:06:33.016Z,4.70
2022-08-02T15:09:00.014Z,4.43
2022-08-02T15:11:26.729Z,2.55
2022-08-02T15:13:53.248Z,2.92
2022-08-02T15:16:19.840Z,10.77
2022-08-02T15:18:46.460Z,7.05
2022-08-02T15:21:40.205Z,5.90
2022-08-02T15:23:59.773Z,4.50
2022-08-02T15:26:26.380Z,4.95
2022-08-02T15:28:55.796Z,9.02
2022-08-02T15:31:33.496Z,2.78
2022-08-02T15:34:01.080Z,6.28
2022-08-02T15:36:29.588Z,4.07
2022-08-02T15:38:57.501Z,2.85
2022-08-02T15:41:24.364Z,3.70
2022-08-02T15:44:01.170Z,4.15
2022-08-02T15:46:31.094Z,2.28
2022-08-02T15:48:59.598Z,3.67
2022-08-02T15:51:26.700Z,2.10
2022-08-02T15:53:53.229Z,5.88
2022-08-02T15:56:21.927Z,1.80
2022-08-02T15:58:51.755Z,7.40
2022-08-02T16:01:25.283Z,3.75
2022-08-02T16:03:58.674Z,5.10
2022-08-02T16:06:25.542Z,6.13
2022-08-02T16:08:54.619Z,10.32
2022-08-02T16:11:22.547Z,6.72
2022-08-02T16:13:55.018Z,4.88
2022-08-02T16:16:30.805Z,6.60
2022-08-02T16:18:58.094Z,6.45
2022-08-02T16:21:24.924Z,7.00
2022-08-02T16:23:58.575Z,5.32
2022-08-02T16:26:29.636Z,6.65
2022-08-02T16:28:57.209Z,3.17
2022-08-02T16:31:23.993Z,4.72
2022-08-02T16:33:50.703Z,4.28
2022-08-02T16:36:23.653Z,7.28
2022-08-02T16:38:50.285Z,8.45
2022-08-02T16:41:17.084Z,2.38
2022-08-02T16:46:27.720Z,9.10
2022-08-02T16:48:54.304Z,3.25
2022-08-02T16:51:21.109Z,3.95
2022-08-02T16:54:00.521Z,5.68
2022-08-02T16:56:28.392Z,10.00
2022-08-02T16:58:55.209Z,4.95
2022-08-02T17:01:24.078Z,4.43
2022-08-02T17:03:56.108Z,5.43
2022-08-02T17:06:26.191Z,8.18
2022-08-02T17:08:56.268Z,9.68
2022-08-02T17:11:23.821Z,4.80
2022-08-02T17:13:51.481Z,8.52
2022-08-02T17:16:20.792Z,12.10
2022-08-02T17:18:54.007Z,13.20
2022-08-02T17:21:20.927Z,7.45
2022-08-02T17:24:05.376Z,11.30
2022-08-02T17:26:34.537Z,9.32
2022-08-02T17:29:16.426Z,11.65
2022-08-02T17:32:05.816Z,6.53
2022-08-02T17:34:35.829Z,10.77
2022-08-02T17:37:06.105Z,9.75
2022-08-02T17:39:43.143Z,6.28
2022-08-02T17:42:19.808Z,9.55
2022-08-02T17:44:49.134Z,5.82
2022-08-02T17:47:16.123Z,8.82
2022-08-02T17:49:52.662Z,12.65
2022-08-02T17:52:52.093Z,13.23
2022-08-02T17:55:10.670Z,11.70
2022-08-02T17:57:56.049Z,6.97
2022-08-02T18:00:26.388Z,5.38
2022-08-02T18:02:55.426Z,8.52
2022-08-02T18:05:23.687Z,8.60
2022-08-02T18:08:06.198Z,6.90
2022-08-02T18:10:33.969Z,11.63
2022-08-02T18:13:00.580Z,6.43
2022-08-02T18:15:29.327Z,7.22
2022-08-02T18:17:58.954Z,5.95
2022-08-02T18:20:25.492Z,5.70
2022-08-02T18:22:55.460Z,7.30
2022-08-02T18:25:36.913Z,9.95
2022-08-02T18:28:10.835Z,6.28
2022-08-02T18:30:37.300Z,8.82
2022-08-02T18:33:59.270Z,6.93
2022-08-02T18:35:52.749Z,9.05
2022-08-02T18:38:22.014Z,6.32
2022-08-02T18:40:50.926Z,6.43
2022-08-02T18:43:18.629Z,10.02
2022-08-02T18:46:05.645Z,9.88
2022-08-02T18:48:36.595Z,9.05
2022-08-02T18:51:06.362Z,6.45
2022-08-02T18:53:41.875Z,6.57
2022-08-02T18:56:24.589Z,5.80
2022-08-02T18:58:52.903Z,4.97
2022-08-02T19:01:31.640Z,10.95
2022-08-02T19:04:00.718Z,12.27
2022-08-02T19:06:27.663Z,12.98
2022-08-02T19:09:05.519Z,10.98
2022-08-02T19:11:38.179Z,8.68
2022-08-02T19:14:05.087Z,11.68
2022-08-02T19:16:37.132Z,7.18
2022-08-02T19:19:20.396Z,10.40
2022-08-02T19:22:18.872Z,10.25
2022-08-02T19:24:33.609Z,7.97
2022-08-02T19:27:04.809Z,10.85
2022-08-02T19:29:42.709Z,6.73
2022-08-02T19:32:39.623Z,6.57
2022-08-02T19:35:19.542Z,9.75
2022-08-02T19:37:51.309Z,8.90
2022-08-02T19:40:24.067Z,5.00
2022-08-02T19:45:48.919Z,6.57
2022-08-02T19:48:18.037Z,8.13
2022-08-02T19:50:56.110Z,9.68
2022-08-02T19:53:28.831Z,11.77
2022-08-02T19:56:12.150Z,6.15
2022-08-02T19:58:39.727Z,5.30
2022-08-02T20:01:14.214Z,9.48
2022-08-02T20:03:52.716Z,11.48
2022-08-02T20:06:28.542Z,6.63
2022-08-02T20:08:59.098Z,5.13
2022-08-02T20:11:27.853Z,8.32
2022-08-02T20:13:54.428Z,3.92
2022-08-02T20:16:27.683Z,10.07
2022-08-02T20:18:56.014Z,5.95
2022-08-02T20:21:36.316Z,7.65
2022-08-02T20:24:05.756Z,6.65
2022-08-02T20:26:32.702Z,5.53
2022-08-02T20:29:02.927Z,10.35
2022-08-02T20:31:30.083Z,6.38
2022-08-02T20:33:57.121Z,7.72
2022-08-02T20:36:27.745Z,6.80
2022-08-02T20:38:54.776Z,10.40
2022-08-02T20:41:22.733Z,8.15
2022-08-02T20:43:50.017Z,7.97
2022-08-02T20:46:16.595Z,8.48
2022-08-02T20:48:44.214Z,8.10
2022-08-02T20:51:12.307Z,6.75
2022-08-02T20:53:54.813Z,13.00
2022-08-02T20:56:23.282Z,9.65
2022-08-02T20:58:51.905Z,10.23
2022-08-02T21:01:21.132Z,7.68
2022-08-02T21:03:54.053Z,8.40
2022-08-02T21:06:28.237Z,9.52
2022-08-02T21:08:55.672Z,8.52
2022-08-02T21:11:25.517Z,12.13
2022-08-02T21:14:07.658Z,7.72
2022-08-02T21:16:36.191Z,9.70
2022-08-02T21:19:02.964Z,10.00
2022-08-02T21:21:34.671Z,7.63
2022-08-02T21:24:01.633Z,9.63
2022-08-02T21:26:31.259Z,8.88
2022-08-02T21:29:03.656Z,6.82
2022-08-02T21:31:32.019Z,12.32
2022-08-02T21:34:02.815Z,12.68
2022-08-02T21:36:32.694Z,13.80
2022-08-02T21:39:05.043Z,11.00
2022-08-02T21:41:39.786Z,11.07
2022-08-02T21:44:13.886Z,9.23
2022-08-02T21:46:44.556Z,5.88
2022-08-02T21:49:12.483Z,10.80
2022-08-02T21:51:39.800Z,8.85
2022-08-02T21:54:18.947Z,6.13
2022-08-02T21:56:55.354Z,6.95
2022-08-02T21:59:25.266Z,13.25
2022-08-02T22:01:52.327Z,11.75
2022-08-02T22:04:20.281Z,7.47
2022-08-02T22:06:49.210Z,8.82
2022-08-02T22:09:44.422Z,14.07
2022-08-02T22:12:12.276Z,10.32
2022-08-02T22:14:43.463Z,9.95
2022-08-02T22:17:16.448Z,14.45
2022-08-02T22:19:53.955Z,16.50
2022-08-02T22:22:28.030Z,4.97
2022-08-02T22:24:56.029Z,10.00
2022-08-02T22:27:23.631Z,9.95
2022-08-02T22:30:10.796Z,7.43
2022-08-02T22:32:56.339Z,10.40
2022-08-02T22:35:22.963Z,12.13
2022-08-02T22:38:17.295Z,9.15
2022-08-02T22:40:36.126Z,14.85
2022-08-02T22:43:02.685Z,8.77
2022-08-02T22:45:29.546Z,5.78
2022-08-02T22:47:58.714Z,4.63
2022-08-02T22:50:27.067Z,12.57
2022-08-02T22:52:53.759Z,8.48
2022-08-02T22:55:21.471Z,9.98
2022-08-02T22:57:56.560Z,7.00
2022-08-02T22:58:53.024Z,10.52
2022-08-02T23:00:25.185Z,10.18
2022-08-02T23:02:51.836Z,10.43
2022-08-02T23:05:18.655Z,5.55
2022-08-02T23:07:45.225Z,6.88
2022-08-02T23:10:11.807Z,4.60
2022-08-02T23:12:38.354Z,8.38
2022-08-02T23:15:05.461Z,11.32
2022-08-02T23:17:52.893Z,7.47
2022-08-02T23:20:19.966Z,9.55
2022-08-02T23:22:46.615Z,22.80
2022-08-02T23:25:14.329Z,9.02
2022-08-02T23:27:50.251Z,7.30
2022-08-02T23:30:17.669Z,8.18
2022-08-02T23:32:44.279Z,6.93
2022-08-02T23:35:16.585Z,8.98
2022-08-02T23:37:58.351Z,8.60
2022-08-02T23:40:39.379Z,8.68
2022-08-02T23:43:13.982Z,8.15
2022-08-02T23:45:45.500Z,6.35
2022-08-02T23:48:12.193Z,9.88
2022-08-02T23:50:38.743Z,9.75
2022-08-02T23:53:05.308Z,8.55
2022-08-02T23:55:31.814Z,13.25
2022-08-02T23:57:58.352Z,11.85
